Latest Conditions
At L.F.Wade Int. Airport
Recorded at 7:55 pm
Partly Cloudy
Temp.: 
26°C/79°F
Humidity: 
82%
Wind: 
SSE 2KT
or 2mph
Island Observations
Observations
Monday, September 01, 2014

Observations are in local time and taken at least once an hour, or upon the start and end of specified events such as showers and thunderstorms.

Time Sky / Weather Wind Speed/Gusts Temp. R.H. Pressure
     knots (mph)  °C (°F)  %  mb / "Hg
 19:55 Partly Cloudy  SSE 2/0 (2/0) 26(79) 82 1022 / 30.17
 18:55 Partly Cloudy  SSE 3/0 (3/0) 27(81) 76 1021 / 30.16
 17:55 Few Clouds  SSE 2/0 (2/0) 28(82) 75 1021 / 30.16
 16:55 Partly Cloudy Showers S 2/0 (2/0) 28(83) 73 1021 / 30.16
 15:55 Few Clouds  S 2/0 (2/0) 28(83) 72 1022 / 30.17
 14:55 Few Clouds  S 3/0 (3/0) 29(84) 76 1022 / 30.18
 13:55 Few Clouds  S 5/0 (6/0) 28(83) 78 1022 / 30.19
 12:55 Few Clouds  Calm 28(83) 80 1023 / 30.20
 12:20 Partly Cloudy Showers Calm 28(82) 82 1023 / 30.20
 11:55 Mostly Cloudy Showers Calm 28(82) 82 1023 / 30.20
 11:06 Partly Cloudy Showers Calm 27(81) 85 1023 / 30.21
 10:55 Partly Cloudy Showers Calm 27(81) 85 1023 / 30.21
 10:33 Partly Cloudy Showers ESE 7/0 (8/0) 28(82) 81 1023 / 30.20
 09:55 Few Clouds  ESE 5/0 (6/0) 28(82) 81 1023 / 30.21
 08:55 Few Clouds  SE 5/0 (6/0) 27(81) 83 1023 / 30.21
 07:55 Partly Cloudy  SE 5/0 (6/0) 26(79) 88 1023 / 30.21
 06:55 Few Clouds  Calm 24(76) 92 1023 / 30.20
 05:55 Mostly Cloudy  SE 5/0 (6/0) 25(76) 92 1022 / 30.17
 04:55 Mostly Cloudy  SSE 7/0 (8/0) 25(77) 91 1022 / 30.17
 04:06 Mostly Cloudy Showers SE 6/0 (7/0) 24(76) 91 1022 / 30.17
 03:55 Mostly Cloudy Showers SSE 8/0 (9/0) 24(76) 91 1022 / 30.18
 02:55 Mostly Cloudy  SE 6/0 (7/0) 25(77) 90 1022 / 30.18
 01:55 Mostly Cloudy Showers SE 8/0 (9/0) 25(78) 91 1022 / 30.19
 00:55 Mostly Cloudy  ESE 11/0 (13/0) 25(78) 91 1023 / 30.20
Observations from our AWOS sites are available here (password and username are both 'guest').